LOS ANGELES USC CAMPUS

METAR KCQT TAF KLAX
6 °C
°C
-
°C
58m
Age
14:45:22
LT
13:45
UTC
0 ft

1,000

2,000

3,000

4,000

5,000

VFR
<?= Yii::t('app', 'Wind direction') ?> <?= Yii::t('app', 'of'); ?>
VAR
06:49
Sunrise
57%
Humidity
Wind shear
Closed/Snow
RWY visual range
RWY condition
Vert. visibility
Min. visibility
CAVOK
Trend
Correction
Special report
30.11 inHg
QNH
METAR KCQT 011247Z AUTO 00000KT 10SM CLR 06/M02 A3011 RMK AO2 SLP194 T00561022
Clear
0 kt
0 kt
05:00
VFR
5 kt
06:00
VFR
5 kt
07:00
VFR
5 kt
08:00
VFR
5 kt
09:00
VFR
3 kt
10:00
VFR
3 kt
11:00
VFR
3 kt
10 mi
Visibility
None
Ceiling
None
Wind
metar-taf.com/KCQT

Metar-Taf.com

Visual decoder

We and third parties follow your internet behavior on our website with cookies. If you continue, we assume you agree with our cookie policy.